Chadstone Weather > Observations for 19/09/20

Select Day:



Observations
Time Temp Hum DP Wind Gust Dir Rain >9am Press
C % C kph kph mm hPa
00:00 13.3 87 11.2 0.0 0.0 N 0.0 1029.7
00:10 13.3 87 11.2 0.0 0.0 N 0.0 1029.8
00:20 13.3 87 11.2 0.0 0.0 N 0.0 1029.7
00:30 13.3 87 11.2 0.0 0.0 N 0.0 1029.7
00:40 13.3 87 11.2 0.0 0.0 N 0.0 1029.7
00:50 13.3 87 11.2 0.0 0.0 N 0.0 1029.7
01:00 13.3 87 11.2 0.0 0.0 N 0.0 1029.6
01:10 13.3 87 11.2 0.0 0.0 N 0.0 1029.5
01:20 12.6 91 11.2 0.0 0.0 N 0.0 1029.4
01:30 12.7 91 11.3 0.0 0.0 N 0.0 1029.3
01:40 12.8 92 11.5 0.0 0.0 N 0.0 1029.2
01:50 12.9 92 11.6 0.0 0.0 N 0.0 1029.0
02:00 13.0 92 11.7 0.0 0.0 N 0.0 1028.5
02:10 13.1 92 11.8 0.0 0.0 N 0.0 1028.3
02:20 13.3 93 12.2 0.0 0.0 N 0.0 1028.2
02:30 13.5 93 12.4 0.0 0.0 N 0.0 1027.9
02:40 13.7 94 12.8 0.0 0.0 N 0.0 1027.6
02:50 13.8 94 12.9 0.0 0.0 N 0.0 1027.6
03:00 14.0 94 13.1 0.0 0.0 N 0.0 1027.4
03:10 14.0 94 13.1 0.0 0.0 N 0.0 1027.5
03:20 14.0 94 13.1 0.0 0.0 N 0.0 1027.3
03:30 13.9 95 13.1 0.0 0.0 N 0.0 1027.4
03:40 13.9 95 13.1 0.0 0.0 N 0.0 1027.1
03:50 13.9 95 13.1 0.0 0.0 N 0.0 1027.2
04:00 13.9 95 13.1 0.0 0.0 N 0.0 1026.9
04:10 13.9 95 13.1 0.0 0.0 N 0.0 1026.9
04:20 13.9 95 13.1 0.0 0.0 N 0.0 1026.8
04:30 13.9 95 13.1 0.0 0.0 N 0.0 1026.7
04:40 13.9 95 13.1 0.0 0.0 N 0.0 1026.8
04:50 13.9 95 13.1 0.0 0.0 N 0.0 1026.7
05:00 13.9 95 13.1 0.0 0.0 N 0.0 1026.6
05:10 13.9 95 13.1 0.0 0.0 N 0.0 1026.5
05:20 13.9 95 13.1 0.0 0.0 N 0.0 1026.3
05:30 13.9 95 13.1 0.0 0.0 N 0.0 1026.4
05:40 13.9 95 13.1 0.0 0.0 N 0.0 1026.7
05:50 13.9 95 13.1 0.0 0.0 N 0.0 1026.6
06:00 13.9 95 13.1 0.0 0.0 N 0.0 1026.8
06:10 13.9 95 13.1 0.0 0.0 N 0.0 1026.8
06:20 13.9 95 13.1 0.0 0.0 N 0.0 1026.6
06:30 13.9 95 13.1 0.0 0.0 N 0.0 1026.8
06:40 13.9 95 13.1 0.0 0.0 N 0.0 1026.8
06:50 13.9 95 13.1 0.0 0.0 N 0.0 1027.0
07:00 13.9 95 13.1 0.0 0.0 N 0.0 1026.9
07:10 13.9 95 13.1 0.0 0.0 N 0.0 1026.8
07:20 13.9 95 13.1 0.0 0.0 N 0.0 1026.6
07:30 13.9 97 13.4 0.0 0.0 N 0.0 1026.8
07:40 14.1 96 13.5 0.0 0.0 N 0.0 1026.4
07:50 14.4 96 13.8 0.0 0.0 N 0.0 1026.4
08:00 14.8 96 14.2 0.0 0.0 N 0.0 1026.5
08:10 15.0 96 14.4 0.0 0.0 N 0.0 1026.3
08:20 15.3 96 14.7 0.0 0.0 N 0.0 1026.2
08:30 15.3 96 14.7 0.0 0.0 N 0.0 1026.1
08:40 16.0 95 15.2 0.0 1.1 NE 0.0 1026.0
08:50 17.0 94 16.0 0.6 8.6 N 0.0 1025.8
09:00 17.9 93 16.8 5.6 12.2 N 0.0 1025.6
09:10 19.4 86 17.0 7.4 14.8 NE 0.0 1025.5
09:20 20.1 75 15.5 7.7 14.8 NNE 0.0 1025.3
09:30 20.6 72 15.4 9.0 17.3 NNE 0.0 1025.1
09:40 21.0 68 14.9 9.6 17.3 N 0.0 1025.2
09:50 21.1 66 14.5 11.0 23.4 NNE 0.0 1025.3
10:00 21.2 67 14.8 7.1 15.8 NNW 0.0 1025.0
10:10 21.1 66 14.5 8.6 18.4 N 0.0 1025.0
10:20 21.4 65 14.6 7.7 17.3 N 0.0 1024.9
10:30 21.6 64 14.5 6.6 17.3 ENE 0.0 1024.6
10:40 21.9 63 14.6 11.2 27.0 N 0.0 1024.4
10:50 22.1 61 14.2 7.6 27.0 N 0.0 1024.4
11:00 22.5 60 14.4 13.8 30.6 N 0.0 1024.1
11:10 23.1 56 13.9 15.5 27.0 N 0.0 1023.8
11:20 23.0 56 13.8 13.0 24.5 W 0.0 1023.6
11:30 23.7 55 14.1 16.4 30.6 NNW 0.0 1023.3
11:40 24.3 53 14.1 15.4 33.1 N 0.0 1022.9
11:50 24.9 51 14.1 16.7 37.8 NNW 0.0 1022.9
12:00 25.0 50 13.9 16.8 31.7 N 0.0 1022.6
12:10 24.6 50 13.5 13.2 23.4 NE 0.0 1022.5
12:20 24.8 50 13.7 14.5 28.1 NNE 0.0 1022.5
12:30 24.7 50 13.6 13.9 24.5 NNE 0.0 1022.3
12:40 25.0 49 13.6 11.8 23.4 N 0.0 1021.9
12:50 25.2 47 13.1 14.1 23.4 NNW 0.0 1021.6
13:00 25.7 47 13.6 13.3 24.5 NNW 0.0 1021.2
13:10 25.9 45 13.1 14.4 31.7 N 0.0 1020.9
13:20 26.0 44 12.8 15.2 29.5 NNW 0.0 1020.6
13:30 26.0 44 12.8 17.8 29.5 NNE 0.0 1020.4
13:40 26.0 44 12.8 20.2 40.3 N 0.0 1020.1
13:50 26.0 44 12.8 18.4 35.6 WSW 0.0 1019.8
14:00 26.0 43 12.5 14.8 28.1 N 0.0 1019.8
14:10 25.8 45 13.0 15.6 25.6 NW 0.0 1019.7
14:20 25.8 45 13.0 15.8 31.7 NE 0.0 1019.4
14:30 25.9 45 13.1 14.7 25.6 ENE 0.0 1019.1
14:40 25.9 44 12.7 14.9 36.7 N 0.0 1018.9
14:50 25.8 44 12.6 17.8 36.7 NNE 0.0 1018.8
15:00 26.1 43 12.6 13.3 27.0 NNE 0.0 1018.8
15:10 26.0 43 12.5 15.3 29.5 N 0.0 1018.7
15:20 25.8 45 13.0 13.8 28.1 NE 0.0 1018.6
15:30 26.0 45 13.2 9.3 15.8 N 0.0 1018.4
15:40 26.0 45 13.2 7.9 15.8 N 0.0 1018.3
15:50 26.0 44 12.8 8.9 20.9 NNW 0.0 1018.2
16:00 26.1 43 12.6 12.4 19.4 SW 0.0 1018.0
16:10 26.0 43 12.5 13.9 27.0 NNE 0.0 1017.8
16:20 25.6 45 12.8 13.3 25.6 ENE 0.0 1017.8
16:30 25.4 45 12.6 13.0 30.6 N 0.0 1017.7
16:40 25.3 46 12.9 15.7 27.0 N 0.0 1017.5
16:50 25.2 46 12.8 12.3 24.5 NNE 0.0 1017.5
17:00 25.0 47 12.9 14.9 25.6 NNE 0.0 1017.5
17:10 24.8 49 13.4 15.3 28.1 NNE 0.0 1017.4
17:20 24.6 50 13.5 12.0 20.9 NE 0.0 1017.8
17:30 24.4 50 13.3 11.8 24.5 NNE 0.0 1017.9
17:40 24.2 51 13.4 11.1 20.9 N 0.0 1017.8
17:50 24.0 52 13.6 10.9 19.4 NNE 0.0 1017.8
18:00 23.8 53 13.7 9.0 18.4 NE 0.0 1017.6
18:10 23.6 54 13.8 6.5 15.8 NNE 0.0 1017.4
18:20 23.3 55 13.8 5.3 9.7 NNE 0.0 1017.4
18:30 23.1 55 13.6 5.1 9.7 NNE 0.0 1017.4
18:40 22.9 56 13.7 4.3 8.6 NNE 0.0 1017.6
18:50 22.7 57 13.8 3.9 9.7 NNE 0.0 1017.6
19:00 22.4 58 13.7 3.3 6.1 NNE 0.0 1017.7
19:10 22.2 59 13.8 3.3 6.1 NE 0.0 1017.6
19:20 22.0 60 13.9 4.1 9.7 NE 0.0 1017.7
19:30 22.0 60 13.9 5.7 12.2 ENE 0.0 1017.6
19:40 22.1 59 13.7 9.0 14.8 NE 0.0 1017.5
19:50 22.3 57 13.4 9.7 17.3 N 0.0 1017.5
20:00 22.3 56 13.1 6.2 14.8 NE 0.0 1017.4
20:10 22.3 55 12.8 8.4 17.3 NNE 0.0 1017.6
20:20 22.3 56 13.1 5.8 12.2 NNE 0.0 1017.5
20:30 22.2 56 13.0 7.9 17.3 NNE 0.0 1017.7
20:40 22.2 56 13.0 7.7 14.8 NNE 0.0 1017.7
20:50 22.1 56 12.9 8.4 15.8 NE 0.0 1017.7
21:00 22.1 56 12.9 8.7 17.3 NNE 0.0 1017.8
21:10 22.1 56 12.9 12.6 23.4 N 0.0 1017.8
21:20 22.1 55 12.7 10.4 19.4 NNE 0.0 1017.8
21:30 22.1 55 12.7 12.2 24.5 NNE 0.0 1017.7
21:40 22.1 54 12.4 9.9 20.9 NNE 0.0 1017.5
21:50 22.1 54 12.4 10.7 20.9 NE 0.0 1017.4
22:00 22.0 54 12.3 7.9 13.3 NE 0.0 1017.3
22:10 21.9 55 12.5 6.9 12.2 NE 0.0 1017.3
22:20 21.9 56 12.7 7.9 13.3 NE 0.0 1017.0
22:30 21.8 56 12.6 7.5 17.3 N 0.0 1017.0
22:40 21.7 56 12.6 9.0 17.3 NE 0.0 1016.9
22:50 21.7 56 12.6 6.7 11.2 NNE 0.0 1016.8
23:00 21.6 56 12.5 5.9 11.2 NE 0.0 1016.7
23:10 21.5 57 12.6 4.4 9.7 N 0.0 1016.6
23:20 21.4 57 12.5 3.6 7.2 NE 0.0 1016.5
23:30 21.2 58 12.6 3.5 9.7 NE 0.0 1016.4
23:40 21.2 60 13.1 2.9 7.2 N 0.0 1016.6
23:50 21.0 63 13.7 3.3 8.6 NNE 0.0 1016.4